Eckard, Illinois
Current Conditions -  °F | °C
As of 6:54 PM on Saturday 22 Nov 2014 (Local Time) from KPIA Reporting Station
Overcast Overcast  
Wind Chill: 56°   Ceiling: 2300
Heat Index: 56°   Visibility: 10mi
Dew Point: 47°   Wind: 16mph
Humidity: 72%   Direction: 190°S
Pressure: 29.88"   Gusts: NA
Location:  40.2774°N, 90.0095°W
Report Text: KPIA 230054Z 19014KT 10SM OVC023 13/08 A2988 RMK AO2 SLP119 T01330083
Loading
Personal Weather Stations






























Interactive Weather Map New forecast layout! Learn more

10-Day Weather Forecast

Advertisements
Track Severe Weather on mobile